Portada
METAR-TAF:

METAR-TAF

Aeroports :

Vlissingen, Països Baixos

latitud: 51-27N, longitud: 3-36E, altitud: 10 m

Observació

L'informe es va fer fa 27 minuts, a les 13:25 UTC
Vent 20 kt del Oest, variant entre Oest/Sud-Oest i Nord-Oest
Temperatura 6°C
Humitat 70%
Pressió 1002 hPa
Visibilitat 10 km o més

METAR: EHFS 261325Z AUTO 28020KT 250V310 9999 FEW005/// SCT023/// BKN029/// 06/01 Q1002 REDZ

Hora: 14:52 (13:52 UTC)


TAF: manca

Observacions i pronòstics meteorològics de més de 4000 aeroports (METAR i TAF).

Les estacions disponibles són els punts grocs i vermells al mapa.

Posi el ratolí al punt desitjat per veure el nom de l'estació.

Feu clic per veure les observacions i els pronòstics meteorològics.

Per canviar el mapa: feu clic els botons verds amb una creu de color negre per apropar; al botó verd amb un guió per allunyar la imatge; o en les fletxes verdes per a mapes adjacents.


METAR-TAF: